鹿児島空港の過去48時間の天気

鹿児島空港 (Kagoshima)

現在時刻: 9/17 00:16 JST (9/16 15:16 UTC) 以下の時間は現地時間です。

過去48時間のMETAR気象情報
時間 風向 風速(m/s) 視程 気温(℃) 湿度(%) 気圧(hPa) 天気現象
16 21:00 3 10km以上 23 89 1006
16 20:00 北北東 2 10km以上 24 83 1005
16 19:00 北北東 3 10km以上 25 78 1004
16 18:00 北北西 5 10km以上 26 74 1004
16 17:00 北北西 4 10km以上 28 66 1003
16 16:00 北北西 5 10km以上 30 62 1003
16 15:00 5 10km以上 30 62 1003
16 14:00 不定 2 10km以上 29 70 1003
16 13:00 3 10km以上 30 62 1004
16 12:00 2 10km以上 30 62 1004
16 11:00 南南東 3 10km以上 29 66 1005
16 10:00 北北東 2 10km以上 28 70 1005
16 09:00 不定 1 10km以上 26 79 1005
16 08:00 2 10km以上 24 94 1005
16 07:00 2 10km以上 22 100 1005
16 06:00 2 10km以上 21 100 1005 散在した霧
15 21:00 東南東 1 10km以上 25 83 1007
15 20:00 不定 1 10km以上 26 79 1007
15 19:00 不定 1 10km以上 26 79 1006
15 18:00 南東 2 10km以上 27 74 1005
15 17:00 南南東 2 10km以上 29 66 1005
15 16:00 南東 2 10km以上 30 62 1005
15 15:00 南西 3 10km以上 30 62 1005
15 14:00 西 3 10km以上 31 62 1006
15 13:00 南東 2 10km以上 30 59 1007
15 12:00 3 10km以上 29 62 1008
15 11:00 東南東 3 10km以上 29 62 1008
15 10:00 3 10km以上 28 66 1009
15 09:00 北東 2 10km以上 26 74 1009
15 08:00 北北西 2 10km以上 25 74 1008
15 07:00 不定 1 10km以上 22 94 1008
15 06:00 不定 1 10km以上 22 88 1008 周辺で霧
RJFK 161200Z 36006KT 9999 SCT025 23/21 Q1006 RMK 3CU025 A2971
RJFK 161100Z 02004KT 350V050 9999 FEW020 SCT030 24/21 Q1005 RMK 1CU020 4CU030 A2969
RJFK 161000Z 02006KT 9999 FEW030 BKN040 25/21 Q1004 RMK 2CU030 5CU040 A2967
RJFK 160900Z 34009KT 9999 FEW030 SCT045 26/21 Q1004 RMK 1CU030 3CU045 A2965 VOLCANIC ASH CLOUD S
RJFK 160800Z 34008KT 9999 FEW040 28/21 Q1003 RMK 2CU040 A2963 VOLCANIC ASH CLOUD S
RJFK 160700Z 34009KT 9999 FEW040 30/22 Q1003 RMK 1CU040 A2963
RJFK 160600Z 35009KT 9999 FEW035 30/22 Q1003 RMK 2CU035 A2962
RJFK 160500Z VRB04KT 9999 FEW030 BKN040 29/23 Q1003 RMK 1CU030 5CU040 A2964 VOLCANIC ASH CLOUD S
RJFK 160400Z 19006KT 170V230 9999 FEW030 BKN040 30/22 Q1004 RMK 2CU030 5CU040 A2965 VOLCANIC ASH CLOUD S
RJFK 160300Z 18004KT 130V230 9999 FEW030 SCT040 30/22 Q1004 RMK 1CU030 4CU040 A2967 VOLCANIC ASH CLOUD S
RJFK 160200Z 15005KT 120V190 9999 FEW030 29/22 Q1005 RMK 2CU030 A2968 VOLCANIC ASH CLOUD S
RJFK 160100Z 03003KT 320V070 9999 FEW030 28/22 Q1005
RJFK 160000Z VRB02KT 9999 FEW040 26/22 Q1005 RMK 1CU040 A2970 VOLCANIC ASH CLOUD S
RJFK 152300Z 01003KT 340V040 9999 FEW050 24/23 Q1005 RMK 1SC050 A2970 VOLCANIC ASH CLOUD S
RJFK 152200Z 01004KT 9999 FEW002 22/22 Q1005 RMK 1ST002 A2969 VOLCANIC ASH CLOUD S
RJFK 152100Z 01004KT 9999 BCFG FEW030 21/21 Q1005 RMK 1CU030 A2969 FG NW-NE
RJFK 151200Z 12001KT 9999 SCT040 25/22 Q1007 RMK 3CU040 A2974
RJFK 151100Z VRB01KT 9999 FEW025 BKN040 26/22 Q1007 RMK 1CU025 5CU040 A2974
RJFK 151000Z VRB01KT 9999 FEW025 BKN040 26/22 Q1006 RMK 1CU025 6CU040 A2972
RJFK 150900Z 13004KT 9999 FEW025 BKN035 27/22 Q1005 RMK 1CU025 5CU035 A2970 VOLCANIC ASH CLOUD S
RJFK 150800Z 15003KT 9999 SCT035 29/22 Q1005 RMK 4CU035 A2970 VOLCANIC ASH CLOUD S
RJFK 150700Z 13003KT 030V180 9999 SCT035 30/22 Q1005 RMK 3CU035 A2969 VOLCANIC ASH CLOUD S
RJFK 150600Z 22006KT 160V260 9999 FEW040 30/22 Q1005 RMK 2CU040 A2970 VOLCANIC ASH CLOUD S
RJFK 150500Z 26006KT 240V310 9999 FEW030 SCT040 31/23 Q1006 RMK 1CU030 3CU040 A2972 VOLCANIC ASH CLOUD S
RJFK 150400Z 13004KT 070V190 9999 FEW025 SCT040 30/21 Q1007 RMK 1CU025 3CU040 A2974 VOLCANIC ASH CLOUD S
RJFK 150300Z 08006KT 030V140 9999 FEW025 SCT040 29/21 Q1008 RMK 1CU025 3CU040 A2977
RJFK 150200Z 12005KT 060V160 9999 FEW020 29/21 Q1008 RMK 2CU020 A2978
RJFK 150100Z 08005KT 040V110 9999 FEW020 28/21 Q1009 RMK 1CU020 A2980
RJFK 150000Z 05003KT 340V120 9999 FEW020 26/21 Q1009 RMK 1CU020 A2980
RJFK 142300Z 33003KT 260V020 9999 FEW020 25/20 Q1008 RMK 1CU020 A2979
RJFK 142200Z VRB02KT 9999 FEW015 22/21 Q1008 RMK 1CU015 A2979
RJFK 142100Z VRB02KT 9999 VCFG FEW020 22/20 Q1008 RMK 1CU020 A2979 FG N-NE